sensor_id;sensor_type;location;lat;lon;timestamp;P1;durP1;ratioP1;P2;durP2;ratioP2
18520;SDS011;9390;51.244;6.982;2024-03-17T00:00:18;9.40;;;4.30;;
18520;SDS011;9390;51.244;6.982;2024-03-17T00:02:49;7.55;;;3.60;;
18520;SDS011;9390;51.244;6.982;2024-03-17T00:05:20;12.20;;;3.75;;
18520;SDS011;9390;51.244;6.982;2024-03-17T00:07:50;17.33;;;4.13;;
18520;SDS011;9390;51.244;6.982;2024-03-17T00:10:22;8.68;;;3.47;;
18520;SDS011;9390;51.244;6.982;2024-03-17T00:12:54;9.18;;;4.40;;
18520;SDS011;9390;51.244;6.982;2024-03-17T00:15:27;14.38;;;4.32;;
18520;SDS011;9390;51.244;6.982;2024-03-17T00:17:58;9.63;;;4.65;;
18520;SDS011;9390;51.244;6.982;2024-03-17T00:20:29;11.35;;;4.05;;
18520;SDS011;9390;51.244;6.982;2024-03-17T00:23:02;7.82;;;3.38;;
18520;SDS011;9390;51.244;6.982;2024-03-17T00:25:34;11.52;;;4.40;;
18520;SDS011;9390;51.244;6.982;2024-03-17T00:28:06;12.13;;;4.30;;
18520;SDS011;9390;51.244;6.982;2024-03-17T00:30:37;9.85;;;4.57;;
18520;SDS011;9390;51.244;6.982;2024-03-17T00:33:08;11.50;;;3.92;;
18520;SDS011;9390;51.244;6.982;2024-03-17T00:35:40;14.00;;;3.83;;
18520;SDS011;9390;51.244;6.982;2024-03-17T00:38:10;9.52;;;3.80;;
18520;SDS011;9390;51.244;6.982;2024-03-17T00:40:42;10.95;;;3.85;;
18520;SDS011;9390;51.244;6.982;2024-03-17T00:43:16;14.18;;;3.75;;
18520;SDS011;9390;51.244;6.982;2024-03-17T00:45:51;10.75;;;4.20;;
18520;SDS011;9390;51.244;6.982;2024-03-17T00:48:21;8.20;;;3.63;;
18520;SDS011;9390;51.244;6.982;2024-03-17T00:50:55;7.25;;;3.33;;
18520;SDS011;9390;51.244;6.982;2024-03-17T00:53:27;12.55;;;3.92;;
18520;SDS011;9390;51.244;6.982;2024-03-17T00:55:59;9.45;;;3.75;;
18520;SDS011;9390;51.244;6.982;2024-03-17T00:58:32;14.57;;;3.63;;
18520;SDS011;9390;51.244;6.982;2024-03-17T01:01:03;9.05;;;3.92;;
18520;SDS011;9390;51.244;6.982;2024-03-17T01:03:34;8.80;;;3.47;;
18520;SDS011;9390;51.244;6.982;2024-03-17T01:06:05;9.27;;;3.92;;
18520;SDS011;9390;51.244;6.982;2024-03-17T01:08:36;9.60;;;4.38;;
18520;SDS011;9390;51.244;6.982;2024-03-17T01:11:07;7.55;;;2.83;;
18520;SDS011;9390;51.244;6.982;2024-03-17T01:13:40;8.95;;;3.60;;
18520;SDS011;9390;51.244;6.982;2024-03-17T01:18:42;11.57;;;3.20;;
18520;SDS011;9390;51.244;6.982;2024-03-17T01:21:15;10.82;;;3.58;;
18520;SDS011;9390;51.244;6.982;2024-03-17T01:23:47;9.30;;;4.13;;
18520;SDS011;9390;51.244;6.982;2024-03-17T01:26:18;8.40;;;3.72;;
18520;SDS011;9390;51.244;6.982;2024-03-17T01:28:50;7.47;;;3.55;;
18520;SDS011;9390;51.244;6.982;2024-03-17T01:31:22;9.32;;;3.83;;
18520;SDS011;9390;51.244;6.982;2024-03-17T01:33:52;13.80;;;4.28;;
18520;SDS011;9390;51.244;6.982;2024-03-17T01:36:24;9.60;;;3.38;;
18520;SDS011;9390;51.244;6.982;2024-03-17T01:38:54;8.25;;;3.75;;
18520;SDS011;9390;51.244;6.982;2024-03-17T01:41:26;8.40;;;3.65;;
18520;SDS011;9390;51.244;6.982;2024-03-17T01:43:58;16.10;;;4.63;;
18520;SDS011;9390;51.244;6.982;2024-03-17T01:46:29;10.38;;;3.83;;
18520;SDS011;9390;51.244;6.982;2024-03-17T01:49:00;7.00;;;2.83;;
18520;SDS011;9390;51.244;6.982;2024-03-17T01:51:31;9.95;;;3.72;;
18520;SDS011;9390;51.244;6.982;2024-03-17T01:54:02;8.20;;;3.40;;
18520;SDS011;9390;51.244;6.982;2024-03-17T01:56:33;19.02;;;3.60;;
18520;SDS011;9390;51.244;6.982;2024-03-17T01:59:09;12.52;;;3.65;;
18520;SDS011;9390;51.244;6.982;2024-03-17T02:01:39;8.95;;;3.22;;
18520;SDS011;9390;51.244;6.982;2024-03-17T02:04:11;7.75;;;3.35;;
18520;SDS011;9390;51.244;6.982;2024-03-17T02:06:42;13.52;;;3.60;;
18520;SDS011;9390;51.244;6.982;2024-03-17T02:09:13;11.85;;;4.75;;
18520;SDS011;9390;51.244;6.982;2024-03-17T02:11:45;8.43;;;3.60;;
18520;SDS011;9390;51.244;6.982;2024-03-17T02:14:16;9.80;;;3.40;;
18520;SDS011;9390;51.244;6.982;2024-03-17T02:16:48;8.68;;;3.20;;
18520;SDS011;9390;51.244;6.982;2024-03-17T02:19:18;12.93;;;4.47;;
18520;SDS011;9390;51.244;6.982;2024-03-17T02:21:50;10.88;;;4.10;;
18520;SDS011;9390;51.244;6.982;2024-03-17T02:24:21;13.02;;;4.45;;
18520;SDS011;9390;51.244;6.982;2024-03-17T02:26:53;9.90;;;3.78;;
18520;SDS011;9390;51.244;6.982;2024-03-17T02:29:23;9.82;;;4.07;;
18520;SDS011;9390;51.244;6.982;2024-03-17T02:31:55;8.82;;;3.70;;
18520;SDS011;9390;51.244;6.982;2024-03-17T02:34:25;13.23;;;3.28;;
18520;SDS011;9390;51.244;6.982;2024-03-17T02:36:57;11.45;;;3.80;;
18520;SDS011;9390;51.244;6.982;2024-03-17T02:39:28;10.30;;;4.28;;
18520;SDS011;9390;51.244;6.982;2024-03-17T02:42:05;10.40;;;3.92;;
18520;SDS011;9390;51.244;6.982;2024-03-17T02:44:38;11.52;;;3.65;;
18520;SDS011;9390;51.244;6.982;2024-03-17T02:47:09;9.93;;;4.03;;
18520;SDS011;9390;51.244;6.982;2024-03-17T02:49:41;9.00;;;4.38;;
18520;SDS011;9390;51.244;6.982;2024-03-17T02:52:13;6.22;;;3.30;;
18520;SDS011;9390;51.244;6.982;2024-03-17T02:54:46;9.57;;;4.47;;
18520;SDS011;9390;51.244;6.982;2024-03-17T02:57:17;15.25;;;4.72;;
18520;SDS011;9390;51.244;6.982;2024-03-17T02:59:49;11.65;;;4.13;;
18520;SDS011;9390;51.244;6.982;2024-03-17T03:02:20;11.68;;;3.83;;
18520;SDS011;9390;51.244;6.982;2024-03-17T03:04:52;16.55;;;5.30;;
18520;SDS011;9390;51.244;6.982;2024-03-17T03:07:23;12.43;;;4.55;;
18520;SDS011;9390;51.244;6.982;2024-03-17T03:09:56;9.13;;;3.85;;
18520;SDS011;9390;51.244;6.982;2024-03-17T03:12:27;10.82;;;4.93;;
18520;SDS011;9390;51.244;6.982;2024-03-17T03:14:58;10.23;;;4.55;;
18520;SDS011;9390;51.244;6.982;2024-03-17T03:17:30;14.45;;;4.95;;
18520;SDS011;9390;51.244;6.982;2024-03-17T03:20:01;14.90;;;5.45;;
18520;SDS011;9390;51.244;6.982;2024-03-17T03:22:33;14.73;;;4.80;;
18520;SDS011;9390;51.244;6.982;2024-03-17T03:25:06;11.65;;;4.88;;
18520;SDS011;9390;51.244;6.982;2024-03-17T03:27:38;16.15;;;5.15;;
18520;SDS011;9390;51.244;6.982;2024-03-17T03:30:10;13.52;;;5.25;;
18520;SDS011;9390;51.244;6.982;2024-03-17T03:32:42;11.60;;;5.03;;
18520;SDS011;9390;51.244;6.982;2024-03-17T03:35:14;14.60;;;5.10;;
18520;SDS011;9390;51.244;6.982;2024-03-17T03:37:45;13.32;;;4.85;;
18520;SDS011;9390;51.244;6.982;2024-03-17T03:40:19;17.55;;;5.05;;
18520;SDS011;9390;51.244;6.982;2024-03-17T03:45:23;15.15;;;5.70;;
18520;SDS011;9390;51.244;6.982;2024-03-17T03:47:55;14.65;;;5.28;;
18520;SDS011;9390;51.244;6.982;2024-03-17T03:50:27;17.05;;;4.60;;
18520;SDS011;9390;51.244;6.982;2024-03-17T03:52:58;11.25;;;5.07;;
18520;SDS011;9390;51.244;6.982;2024-03-17T03:55:31;16.08;;;6.03;;
18520;SDS011;9390;51.244;6.982;2024-03-17T03:58:02;13.65;;;6.53;;
18520;SDS011;9390;51.244;6.982;2024-03-17T04:00:34;16.17;;;4.90;;
18520;SDS011;9390;51.244;6.982;2024-03-17T04:03:09;17.23;;;6.07;;
18520;SDS011;9390;51.244;6.982;2024-03-17T04:05:40;15.10;;;6.25;;
18520;SDS011;9390;51.244;6.982;2024-03-17T04:08:12;22.30;;;5.50;;
18520;SDS011;9390;51.244;6.982;2024-03-17T04:10:44;15.75;;;5.10;;
18520;SDS011;9390;51.244;6.982;2024-03-17T04:13:16;12.32;;;5.45;;
18520;SDS011;9390;51.244;6.982;2024-03-17T04:15:47;14.77;;;5.95;;
18520;SDS011;9390;51.244;6.982;2024-03-17T04:18:19;18.93;;;6.33;;
18520;SDS011;9390;51.244;6.982;2024-03-17T04:20:52;19.83;;;6.22;;
18520;SDS011;9390;51.244;6.982;2024-03-17T04:23:23;15.55;;;6.05;;
18520;SDS011;9390;51.244;6.982;2024-03-17T04:25:56;14.23;;;6.82;;
18520;SDS011;9390;51.244;6.982;2024-03-17T04:28:27;14.40;;;5.57;;
18520;SDS011;9390;51.244;6.982;2024-03-17T04:31:02;13.82;;;6.15;;
18520;SDS011;9390;51.244;6.982;2024-03-17T04:33:35;16.88;;;5.97;;
18520;SDS011;9390;51.244;6.982;2024-03-17T04:36:06;12.98;;;5.07;;
18520;SDS011;9390;51.244;6.982;2024-03-17T04:38:38;16.42;;;5.90;;
18520;SDS011;9390;51.244;6.982;2024-03-17T04:41:11;18.17;;;5.70;;
18520;SDS011;9390;51.244;6.982;2024-03-17T04:43:46;15.20;;;6.05;;
18520;SDS011;9390;51.244;6.982;2024-03-17T04:46:18;16.55;;;6.63;;
18520;SDS011;9390;51.244;6.982;2024-03-17T04:48:49;13.00;;;5.53;;
18520;SDS011;9390;51.244;6.982;2024-03-17T04:51:21;14.82;;;6.50;;
18520;SDS011;9390;51.244;6.982;2024-03-17T04:53:52;13.30;;;6.22;;
18520;SDS011;9390;51.244;6.982;2024-03-17T04:56:25;11.65;;;5.57;;
18520;SDS011;9390;51.244;6.982;2024-03-17T04:58:56;13.15;;;5.22;;
18520;SDS011;9390;51.244;6.982;2024-03-17T05:01:28;15.13;;;5.93;;
18520;SDS011;9390;51.244;6.982;2024-03-17T05:04:01;18.45;;;5.82;;
18520;SDS011;9390;51.244;6.982;2024-03-17T05:06:33;12.50;;;5.03;;
18520;SDS011;9390;51.244;6.982;2024-03-17T05:09:04;27.73;;;6.43;;
18520;SDS011;9390;51.244;6.982;2024-03-17T05:11:37;17.52;;;6.65;;
18520;SDS011;9390;51.244;6.982;2024-03-17T05:14:09;16.98;;;6.57;;
18520;SDS011;9390;51.244;6.982;2024-03-17T05:16:40;14.90;;;6.53;;
18520;SDS011;9390;51.244;6.982;2024-03-17T05:19:11;15.63;;;6.70;;
18520;SDS011;9390;51.244;6.982;2024-03-17T05:21:43;18.02;;;5.93;;
18520;SDS011;9390;51.244;6.982;2024-03-17T05:24:14;12.40;;;5.63;;
18520;SDS011;9390;51.244;6.982;2024-03-17T05:26:48;13.17;;;5.77;;
18520;SDS011;9390;51.244;6.982;2024-03-17T05:29:19;14.57;;;6.47;;
18520;SDS011;9390;51.244;6.982;2024-03-17T05:31:52;13.55;;;6.55;;
18520;SDS011;9390;51.244;6.982;2024-03-17T05:34:23;9.82;;;4.68;;
18520;SDS011;9390;51.244;6.982;2024-03-17T05:36:56;16.90;;;5.77;;
18520;SDS011;9390;51.244;6.982;2024-03-17T05:39:27;14.35;;;6.45;;
18520;SDS011;9390;51.244;6.982;2024-03-17T05:42:00;14.07;;;5.80;;
18520;SDS011;9390;51.244;6.982;2024-03-17T05:44:33;16.17;;;6.18;;
18520;SDS011;9390;51.244;6.982;2024-03-17T05:47:19;14.45;;;5.95;;
18520;SDS011;9390;51.244;6.982;2024-03-17T05:49:51;15.45;;;6.57;;
18520;SDS011;9390;51.244;6.982;2024-03-17T05:52:22;13.02;;;5.90;;
18520;SDS011;9390;51.244;6.982;2024-03-17T05:54:54;12.95;;;5.85;;
18520;SDS011;9390;51.244;6.982;2024-03-17T05:57:27;14.40;;;5.60;;
18520;SDS011;9390;51.244;6.982;2024-03-17T05:59:59;14.10;;;5.72;;
18520;SDS011;9390;51.244;6.982;2024-03-17T06:02:30;18.40;;;6.10;;
18520;SDS011;9390;51.244;6.982;2024-03-17T06:05:02;14.82;;;6.13;;
18520;SDS011;9390;51.244;6.982;2024-03-17T06:07:34;15.48;;;6.18;;
18520;SDS011;9390;51.244;6.982;2024-03-17T06:10:06;14.90;;;5.43;;
18520;SDS011;9390;51.244;6.982;2024-03-17T06:12:39;10.93;;;4.85;;
18520;SDS011;9390;51.244;6.982;2024-03-17T06:15:10;10.85;;;5.20;;
18520;SDS011;9390;51.244;6.982;2024-03-17T06:17:43;12.00;;;5.57;;
18520;SDS011;9390;51.244;6.982;2024-03-17T06:20:14;16.38;;;6.05;;
18520;SDS011;9390;51.244;6.982;2024-03-17T06:22:46;19.58;;;7.47;;
18520;SDS011;9390;51.244;6.982;2024-03-17T06:25:17;13.25;;;5.97;;
18520;SDS011;9390;51.244;6.982;2024-03-17T06:27:50;15.38;;;6.57;;
18520;SDS011;9390;51.244;6.982;2024-03-17T06:30:22;18.13;;;6.05;;
18520;SDS011;9390;51.244;6.982;2024-03-17T06:32:53;15.48;;;6.13;;
18520;SDS011;9390;51.244;6.982;2024-03-17T06:35:24;13.20;;;5.53;;
18520;SDS011;9390;51.244;6.982;2024-03-17T06:37:58;13.23;;;5.15;;
18520;SDS011;9390;51.244;6.982;2024-03-17T06:40:31;15.93;;;6.18;;
18520;SDS011;9390;51.244;6.982;2024-03-17T06:43:04;11.43;;;5.10;;
18520;SDS011;9390;51.244;6.982;2024-03-17T06:45:36;13.23;;;5.18;;
18520;SDS011;9390;51.244;6.982;2024-03-17T06:48:07;12.15;;;5.53;;
18520;SDS011;9390;51.244;6.982;2024-03-17T06:50:39;9.43;;;4.65;;
18520;SDS011;9390;51.244;6.982;2024-03-17T06:53:11;9.77;;;4.82;;
18520;SDS011;9390;51.244;6.982;2024-03-17T06:55:51;10.75;;;4.32;;
18520;SDS011;9390;51.244;6.982;2024-03-17T06:58:25;8.77;;;4.22;;
18520;SDS011;9390;51.244;6.982;2024-03-17T07:00:59;11.43;;;4.55;;
18520;SDS011;9390;51.244;6.982;2024-03-17T07:03:31;9.90;;;4.55;;
18520;SDS011;9390;51.244;6.982;2024-03-17T07:06:03;10.57;;;3.67;;
18520;SDS011;9390;51.244;6.982;2024-03-17T07:08:35;15.90;;;4.55;;
18520;SDS011;9390;51.244;6.982;2024-03-17T07:11:07;10.98;;;3.83;;
18520;SDS011;9390;51.244;6.982;2024-03-17T07:13:42;8.57;;;3.67;;
18520;SDS011;9390;51.244;6.982;2024-03-17T07:16:14;10.93;;;3.10;;
18520;SDS011;9390;51.244;6.982;2024-03-17T07:18:45;7.97;;;3.28;;
18520;SDS011;9390;51.244;6.982;2024-03-17T07:21:16;9.43;;;3.38;;
18520;SDS011;9390;51.244;6.982;2024-03-17T07:23:48;7.18;;;3.22;;
18520;SDS011;9390;51.244;6.982;2024-03-17T07:26:19;5.93;;;2.88;;
18520;SDS011;9390;51.244;6.982;2024-03-17T07:28:52;7.32;;;3.35;;
18520;SDS011;9390;51.244;6.982;2024-03-17T07:31:23;6.78;;;2.85;;
18520;SDS011;9390;51.244;6.982;2024-03-17T07:33:54;6.00;;;2.97;;
18520;SDS011;9390;51.244;6.982;2024-03-17T07:36:26;5.90;;;2.78;;
18520;SDS011;9390;51.244;6.982;2024-03-17T07:38:57;9.02;;;3.28;;
18520;SDS011;9390;51.244;6.982;2024-03-17T07:41:29;9.25;;;3.22;;
18520;SDS011;9390;51.244;6.982;2024-03-17T07:44:01;7.95;;;3.35;;
18520;SDS011;9390;51.244;6.982;2024-03-17T07:46:33;8.20;;;3.10;;
18520;SDS011;9390;51.244;6.982;2024-03-17T07:49:04;9.15;;;3.10;;
18520;SDS011;9390;51.244;6.982;2024-03-17T07:51:36;8.48;;;3.03;;
18520;SDS011;9390;51.244;6.982;2024-03-17T07:54:07;8.27;;;3.30;;
18520;SDS011;9390;51.244;6.982;2024-03-17T07:56:38;7.80;;;3.60;;
18520;SDS011;9390;51.244;6.982;2024-03-17T07:59:11;6.15;;;3.17;;
18520;SDS011;9390;51.244;6.982;2024-03-17T08:01:46;7.15;;;3.33;;
18520;SDS011;9390;51.244;6.982;2024-03-17T08:04:18;7.00;;;3.00;;
18520;SDS011;9390;51.244;6.982;2024-03-17T08:06:49;9.07;;;3.67;;
18520;SDS011;9390;51.244;6.982;2024-03-17T08:09:21;7.32;;;3.55;;
18520;SDS011;9390;51.244;6.982;2024-03-17T08:11:52;8.55;;;3.60;;
18520;SDS011;9390;51.244;6.982;2024-03-17T08:14:25;7.07;;;3.25;;
18520;SDS011;9390;51.244;6.982;2024-03-17T08:16:57;8.13;;;3.55;;
18520;SDS011;9390;51.244;6.982;2024-03-17T08:19:28;9.20;;;3.63;;
18520;SDS011;9390;51.244;6.982;2024-03-17T08:21:59;9.32;;;3.80;;
18520;SDS011;9390;51.244;6.982;2024-03-17T08:24:31;8.32;;;3.80;;
18520;SDS011;9390;51.244;6.982;2024-03-17T08:27:03;8.48;;;3.40;;
18520;SDS011;9390;51.244;6.982;2024-03-17T08:29:36;7.88;;;3.10;;
18520;SDS011;9390;51.244;6.982;2024-03-17T08:32:07;6.43;;;2.80;;
18520;SDS011;9390;51.244;6.982;2024-03-17T08:34:39;9.13;;;3.78;;
18520;SDS011;9390;51.244;6.982;2024-03-17T08:37:10;6.88;;;3.33;;
18520;SDS011;9390;51.244;6.982;2024-03-17T08:39:42;10.30;;;3.95;;
18520;SDS011;9390;51.244;6.982;2024-03-17T08:42:13;6.53;;;3.58;;
18520;SDS011;9390;51.244;6.982;2024-03-17T08:44:46;7.70;;;3.47;;
18520;SDS011;9390;51.244;6.982;2024-03-17T08:49:50;8.02;;;3.08;;
18520;SDS011;9390;51.244;6.982;2024-03-17T08:52:21;8.68;;;3.63;;
18520;SDS011;9390;51.244;6.982;2024-03-17T08:54:53;7.32;;;3.78;;
18520;SDS011;9390;51.244;6.982;2024-03-17T08:57:24;7.85;;;3.50;;
18520;SDS011;9390;51.244;6.982;2024-03-17T08:59:57;10.15;;;3.97;;
18520;SDS011;9390;51.244;6.982;2024-03-17T09:02:28;7.95;;;3.83;;
18520;SDS011;9390;51.244;6.982;2024-03-17T09:05:00;7.82;;;3.75;;
18520;SDS011;9390;51.244;6.982;2024-03-17T09:07:31;6.32;;;3.33;;
18520;SDS011;9390;51.244;6.982;2024-03-17T09:10:03;7.88;;;3.67;;
18520;SDS011;9390;51.244;6.982;2024-03-17T09:12:35;10.48;;;3.70;;
18520;SDS011;9390;51.244;6.982;2024-03-17T09:15:08;10.27;;;3.60;;
18520;SDS011;9390;51.244;6.982;2024-03-17T09:17:41;6.25;;;3.40;;
18520;SDS011;9390;51.244;6.982;2024-03-17T09:20:14;8.73;;;3.70;;
18520;SDS011;9390;51.244;6.982;2024-03-17T09:25:18;7.50;;;3.40;;
18520;SDS011;9390;51.244;6.982;2024-03-17T09:27:50;8.43;;;3.90;;
18520;SDS011;9390;51.244;6.982;2024-03-17T09:30:23;7.70;;;3.17;;
18520;SDS011;9390;51.244;6.982;2024-03-17T09:32:55;9.25;;;3.38;;
18520;SDS011;9390;51.244;6.982;2024-03-17T09:35:26;9.88;;;3.40;;
18520;SDS011;9390;51.244;6.982;2024-03-17T09:37:57;7.93;;;3.60;;
18520;SDS011;9390;51.244;6.982;2024-03-17T09:40:29;8.23;;;4.10;;
18520;SDS011;9390;51.244;6.982;2024-03-17T09:43:00;6.75;;;3.47;;
18520;SDS011;9390;51.244;6.982;2024-03-17T09:45:33;7.25;;;3.60;;
18520;SDS011;9390;51.244;6.982;2024-03-17T09:50:37;8.45;;;3.65;;
18520;SDS011;9390;51.244;6.982;2024-03-17T09:53:09;14.05;;;3.80;;
18520;SDS011;9390;51.244;6.982;2024-03-17T09:55:47;7.75;;;3.58;;
18520;SDS011;9390;51.244;6.982;2024-03-17T09:58:18;8.48;;;3.75;;
18520;SDS011;9390;51.244;6.982;2024-03-17T10:00:51;7.53;;;3.72;;
18520;SDS011;9390;51.244;6.982;2024-03-17T10:03:39;7.65;;;3.70;;
18520;SDS011;9390;51.244;6.982;2024-03-17T10:06:11;9.93;;;3.75;;
18520;SDS011;9390;51.244;6.982;2024-03-17T10:08:44;8.73;;;4.27;;
18520;SDS011;9390;51.244;6.982;2024-03-17T10:11:16;8.43;;;4.22;;
18520;SDS011;9390;51.244;6.982;2024-03-17T10:13:58;7.32;;;3.75;;
18520;SDS011;9390;51.244;6.982;2024-03-17T10:16:32;11.90;;;4.10;;
18520;SDS011;9390;51.244;6.982;2024-03-17T10:19:07;10.00;;;4.15;;
18520;SDS011;9390;51.244;6.982;2024-03-17T10:21:40;8.68;;;4.00;;
18520;SDS011;9390;51.244;6.982;2024-03-17T10:24:13;8.27;;;3.83;;
18520;SDS011;9390;51.244;6.982;2024-03-17T10:26:46;9.55;;;4.38;;
18520;SDS011;9390;51.244;6.982;2024-03-17T10:29:21;8.43;;;3.97;;
18520;SDS011;9390;51.244;6.982;2024-03-17T10:31:56;9.07;;;4.13;;
18520;SDS011;9390;51.244;6.982;2024-03-17T10:34:30;9.40;;;4.60;;
18520;SDS011;9390;51.244;6.982;2024-03-17T10:37:06;8.43;;;3.90;;
18520;SDS011;9390;51.244;6.982;2024-03-17T10:39:41;10.45;;;4.72;;
18520;SDS011;9390;51.244;6.982;2024-03-17T10:42:13;7.43;;;3.47;;
18520;SDS011;9390;51.244;6.982;2024-03-17T10:44:45;8.10;;;4.07;;
18520;SDS011;9390;51.244;6.982;2024-03-17T10:47:20;8.27;;;3.88;;
18520;SDS011;9390;51.244;6.982;2024-03-17T10:49:53;11.73;;;4.10;;
18520;SDS011;9390;51.244;6.982;2024-03-17T10:52:25;13.65;;;4.10;;
18520;SDS011;9390;51.244;6.982;2024-03-17T10:54:58;7.63;;;3.88;;
18520;SDS011;9390;51.244;6.982;2024-03-17T10:57:36;8.18;;;4.07;;
18520;SDS011;9390;51.244;6.982;2024-03-17T11:00:16;13.55;;;4.88;;
18520;SDS011;9390;51.244;6.982;2024-03-17T11:02:50;8.68;;;4.18;;
18520;SDS011;9390;51.244;6.982;2024-03-17T11:05:25;11.45;;;4.07;;
18520;SDS011;9390;51.244;6.982;2024-03-17T11:07:59;8.75;;;3.83;;
18520;SDS011;9390;51.244;6.982;2024-03-17T11:10:33;7.60;;;4.40;;
18520;SDS011;9390;51.244;6.982;2024-03-17T11:13:06;9.48;;;5.60;;
18520;SDS011;9390;51.244;6.982;2024-03-17T11:15:53;12.15;;;5.07;;
18520;SDS011;9390;51.244;6.982;2024-03-17T11:18:31;10.90;;;5.93;;
18520;SDS011;9390;51.244;6.982;2024-03-17T11:21:07;8.55;;;4.90;;
18520;SDS011;9390;51.244;6.982;2024-03-17T11:23:57;9.10;;;4.00;;
18520;SDS011;9390;51.244;6.982;2024-03-17T11:26:31;8.02;;;4.20;;
18520;SDS011;9390;51.244;6.982;2024-03-17T11:29:03;8.45;;;3.95;;
18520;SDS011;9390;51.244;6.982;2024-03-17T11:31:38;10.73;;;4.13;;
18520;SDS011;9390;51.244;6.982;2024-03-17T11:34:27;8.57;;;4.30;;
18520;SDS011;9390;51.244;6.982;2024-03-17T11:37:09;10.00;;;4.13;;
18520;SDS011;9390;51.244;6.982;2024-03-17T11:40:24;10.43;;;4.23;;
18520;SDS011;9390;51.244;6.982;2024-03-17T11:43:04;9.60;;;3.92;;
18520;SDS011;9390;51.244;6.982;2024-03-17T11:45:36;9.82;;;4.50;;
18520;SDS011;9390;51.244;6.982;2024-03-17T11:48:07;7.63;;;4.20;;
18520;SDS011;9390;51.244;6.982;2024-03-17T11:50:45;7.70;;;3.97;;
18520;SDS011;9390;51.244;6.982;2024-03-17T11:53:16;8.18;;;3.13;;
18520;SDS011;9390;51.244;6.982;2024-03-17T11:55:47;13.57;;;5.70;;
18520;SDS011;9390;51.244;6.982;2024-03-17T11:58:19;11.43;;;3.88;;
18520;SDS011;9390;51.244;6.982;2024-03-17T12:00:52;9.20;;;4.45;;
18520;SDS011;9390;51.244;6.982;2024-03-17T12:03:23;5.97;;;3.38;;
18520;SDS011;9390;51.244;6.982;2024-03-17T12:05:55;7.93;;;4.25;;
18520;SDS011;9390;51.244;6.982;2024-03-17T12:08:26;10.27;;;4.00;;
18520;SDS011;9390;51.244;6.982;2024-03-17T12:10:57;10.88;;;4.57;;
18520;SDS011;9390;51.244;6.982;2024-03-17T12:13:32;9.30;;;4.00;;
18520;SDS011;9390;51.244;6.982;2024-03-17T12:16:10;8.50;;;4.18;;
18520;SDS011;9390;51.244;6.982;2024-03-17T12:18:43;11.18;;;3.88;;
18520;SDS011;9390;51.244;6.982;2024-03-17T12:21:17;7.63;;;3.75;;
18520;SDS011;9390;51.244;6.982;2024-03-17T12:23:48;9.25;;;3.50;;
18520;SDS011;9390;51.244;6.982;2024-03-17T12:26:18;7.00;;;2.85;;
18520;SDS011;9390;51.244;6.982;2024-03-17T12:28:50;6.15;;;3.15;;
18520;SDS011;9390;51.244;6.982;2024-03-17T12:31:20;7.65;;;3.60;;
18520;SDS011;9390;51.244;6.982;2024-03-17T12:33:52;7.53;;;3.65;;
18520;SDS011;9390;51.244;6.982;2024-03-17T12:36:24;8.23;;;3.60;;
18520;SDS011;9390;51.244;6.982;2024-03-17T12:38:58;10.70;;;4.07;;
18520;SDS011;9390;51.244;6.982;2024-03-17T12:41:41;6.75;;;2.97;;
18520;SDS011;9390;51.244;6.982;2024-03-17T12:44:22;7.38;;;3.33;;
18520;SDS011;9390;51.244;6.982;2024-03-17T12:46:54;7.05;;;2.78;;
18520;SDS011;9390;51.244;6.982;2024-03-17T12:49:27;6.63;;;3.08;;
18520;SDS011;9390;51.244;6.982;2024-03-17T12:51:59;7.13;;;3.03;;
18520;SDS011;9390;51.244;6.982;2024-03-17T12:54:31;6.28;;;2.50;;
18520;SDS011;9390;51.244;6.982;2024-03-17T12:57:05;8.02;;;2.90;;
18520;SDS011;9390;51.244;6.982;2024-03-17T12:59:55;6.88;;;2.90;;
18520;SDS011;9390;51.244;6.982;2024-03-17T13:02:44;8.65;;;2.35;;
18520;SDS011;9390;51.244;6.982;2024-03-17T13:05:16;7.15;;;2.80;;
18520;SDS011;9390;51.244;6.982;2024-03-17T13:07:52;7.45;;;2.65;;
18520;SDS011;9390;51.244;6.982;2024-03-17T13:10:27;6.05;;;2.50;;
18520;SDS011;9390;51.244;6.982;2024-03-17T13:13:01;8.35;;;2.78;;
18520;SDS011;9390;51.244;6.982;2024-03-17T13:15:33;10.13;;;3.00;;
18520;SDS011;9390;51.244;6.982;2024-03-17T13:18:05;7.20;;;2.60;;
18520;SDS011;9390;51.244;6.982;2024-03-17T13:20:37;7.60;;;2.85;;
18520;SDS011;9390;51.244;6.982;2024-03-17T13:23:10;6.55;;;2.50;;
18520;SDS011;9390;51.244;6.982;2024-03-17T13:25:42;6.45;;;2.50;;
18520;SDS011;9390;51.244;6.982;2024-03-17T13:28:15;6.75;;;2.67;;
18520;SDS011;9390;51.244;6.982;2024-03-17T13:30:46;8.27;;;3.35;;
18520;SDS011;9390;51.244;6.982;2024-03-17T13:33:18;9.93;;;2.55;;
18520;SDS011;9390;51.244;6.982;2024-03-17T13:35:49;7.40;;;2.83;;
18520;SDS011;9390;51.244;6.982;2024-03-17T13:38:22;5.45;;;2.65;;
18520;SDS011;9390;51.244;6.982;2024-03-17T13:40:53;9.57;;;3.10;;
18520;SDS011;9390;51.244;6.982;2024-03-17T13:43:26;6.45;;;2.33;;
18520;SDS011;9390;51.244;6.982;2024-03-17T13:45:57;7.78;;;2.85;;
18520;SDS011;9390;51.244;6.982;2024-03-17T13:48:29;7.72;;;2.70;;
18520;SDS011;9390;51.244;6.982;2024-03-17T13:51:01;7.45;;;2.65;;
18520;SDS011;9390;51.244;6.982;2024-03-17T13:53:35;6.75;;;2.40;;
18520;SDS011;9390;51.244;6.982;2024-03-17T13:56:07;7.10;;;3.00;;
18520;SDS011;9390;51.244;6.982;2024-03-17T13:58:40;8.15;;;2.70;;
18520;SDS011;9390;51.244;6.982;2024-03-17T14:01:11;5.35;;;2.38;;
18520;SDS011;9390;51.244;6.982;2024-03-17T14:03:42;6.55;;;2.42;;
18520;SDS011;9390;51.244;6.982;2024-03-17T14:06:15;6.68;;;2.33;;
18520;SDS011;9390;51.244;6.982;2024-03-17T14:08:48;10.02;;;2.40;;
18520;SDS011;9390;51.244;6.982;2024-03-17T14:11:19;6.35;;;2.38;;
18520;SDS011;9390;51.244;6.982;2024-03-17T14:13:50;4.95;;;2.30;;
18520;SDS011;9390;51.244;6.982;2024-03-17T14:16:23;6.18;;;2.42;;
18520;SDS011;9390;51.244;6.982;2024-03-17T14:18:54;6.38;;;2.65;;
18520;SDS011;9390;51.244;6.982;2024-03-17T14:21:27;5.75;;;2.40;;
18520;SDS011;9390;51.244;6.982;2024-03-17T14:24:00;6.93;;;2.80;;
18520;SDS011;9390;51.244;6.982;2024-03-17T14:26:36;6.75;;;2.22;;
18520;SDS011;9390;51.244;6.982;2024-03-17T14:29:07;6.32;;;2.85;;
18520;SDS011;9390;51.244;6.982;2024-03-17T14:31:39;6.35;;;2.78;;
18520;SDS011;9390;51.244;6.982;2024-03-17T14:34:14;6.32;;;2.50;;
18520;SDS011;9390;51.244;6.982;2024-03-17T14:36:45;6.10;;;2.42;;
18520;SDS011;9390;51.244;6.982;2024-03-17T14:39:17;6.85;;;2.45;;
18520;SDS011;9390;51.244;6.982;2024-03-17T14:41:48;3.78;;;2.17;;
18520;SDS011;9390;51.244;6.982;2024-03-17T14:44:20;6.53;;;2.45;;
18520;SDS011;9390;51.244;6.982;2024-03-17T14:46:51;6.72;;;2.65;;
18520;SDS011;9390;51.244;6.982;2024-03-17T14:49:24;8.45;;;2.67;;
18520;SDS011;9390;51.244;6.982;2024-03-17T14:51:55;5.38;;;2.50;;
18520;SDS011;9390;51.244;6.982;2024-03-17T14:54:28;6.43;;;2.70;;
18520;SDS011;9390;51.244;6.982;2024-03-17T14:57:00;6.32;;;2.80;;
18520;SDS011;9390;51.244;6.982;2024-03-17T14:59:32;7.07;;;2.50;;
18520;SDS011;9390;51.244;6.982;2024-03-17T15:02:04;7.37;;;3.07;;
18520;SDS011;9390;51.244;6.982;2024-03-17T15:04:35;7.63;;;2.90;;
18520;SDS011;9390;51.244;6.982;2024-03-17T15:07:07;6.45;;;2.50;;
18520;SDS011;9390;51.244;6.982;2024-03-17T15:09:40;8.63;;;3.10;;
18520;SDS011;9390;51.244;6.982;2024-03-17T15:12:12;4.50;;;2.40;;
18520;SDS011;9390;51.244;6.982;2024-03-17T15:14:46;8.43;;;2.42;;
18520;SDS011;9390;51.244;6.982;2024-03-17T15:17:17;8.05;;;2.83;;
18520;SDS011;9390;51.244;6.982;2024-03-17T15:19:49;6.80;;;2.53;;
18520;SDS011;9390;51.244;6.982;2024-03-17T15:22:20;7.63;;;2.53;;
18520;SDS011;9390;51.244;6.982;2024-03-17T15:24:53;7.25;;;2.85;;
18520;SDS011;9390;51.244;6.982;2024-03-17T15:27:24;6.22;;;2.65;;
18520;SDS011;9390;51.244;6.982;2024-03-17T15:29:56;8.13;;;3.75;;
18520;SDS011;9390;51.244;6.982;2024-03-17T15:32:27;7.07;;;2.97;;
18520;SDS011;9390;51.244;6.982;2024-03-17T15:34:59;8.77;;;2.78;;
18520;SDS011;9390;51.244;6.982;2024-03-17T15:37:30;7.03;;;2.88;;
18520;SDS011;9390;51.244;6.982;2024-03-17T15:40:04;9.00;;;2.83;;